Atwater, Illinois
Current Conditions -  °F | °C
As of 3:15 PM on Sunday 23 Nov 2014 (Local Time) from K3LF Reporting Station
Moderate Rain Moderate Rain  
Wind Chill: 50°   Ceiling: 800
Heat Index: 50°   Visibility: 4mi
Dew Point: 48°   Wind: 12mph
Humidity: 94%   Direction: 130°SE
Pressure: 29.38"   Gusts: NA
Location:  39.33°N, 89.72°W
Report Text: K3LF 232115Z AUTO 13010KT 4SM RA BKN008 OVC011 10/09 A2938 RMK AO2 P0004 T01010091
Loading
Personal Weather Stations






























Interactive Weather Map New forecast layout! Learn more

10-Day Weather Forecast

Advertisements
Track Severe Weather on mobile